createdAt,value
2017-10-09T00:02:14.049Z,9.70
2017-10-09T00:04:43.050Z,9.70
2017-10-09T00:07:11.297Z,9.70
2017-10-09T00:09:39.540Z,9.70
2017-10-09T00:12:07.799Z,9.70
2017-10-09T00:14:36.044Z,9.70
2017-10-09T00:17:05.062Z,9.70
2017-10-09T00:19:33.302Z,9.70
2017-10-09T00:22:02.321Z,9.70
2017-10-09T00:24:30.563Z,9.70
2017-10-09T00:26:59.583Z,9.70
2017-10-09T00:29:28.606Z,9.70
2017-10-09T00:31:56.862Z,9.70
2017-10-09T00:34:25.096Z,9.70
2017-10-09T00:36:53.342Z,9.70
2017-10-09T00:39:21.591Z,9.60
2017-10-09T00:41:49.840Z,9.70
2017-10-09T00:44:18.846Z,9.60
2017-10-09T00:46:47.092Z,9.60
2017-10-09T00:49:16.090Z,9.60
2017-10-09T00:51:45.101Z,9.50
2017-10-09T00:54:13.357Z,9.50
2017-10-09T00:56:42.362Z,9.50
2017-10-09T00:59:10.597Z,9.50
2017-10-09T01:01:38.857Z,9.50
2017-10-09T01:04:07.105Z,9.40
2017-10-09T01:06:35.359Z,9.40
2017-10-09T01:09:04.396Z,9.30
2017-10-09T01:11:32.640Z,9.30
2017-10-09T01:14:00.880Z,9.30
2017-10-09T01:16:29.137Z,9.30
2017-10-09T01:18:57.375Z,9.30
2017-10-09T01:21:25.625Z,9.20
2017-10-09T01:23:54.629Z,9.30
2017-10-09T01:26:23.639Z,9.30
2017-10-09T01:28:51.882Z,9.30
2017-10-09T01:31:20.889Z,9.30
2017-10-09T01:33:49.125Z,9.30
2017-10-09T01:36:17.370Z,9.30
2017-10-09T01:38:45.619Z,9.30
2017-10-09T01:41:13.889Z,9.30
2017-10-09T01:43:42.102Z,9.30
2017-10-09T01:46:10.344Z,9.30
2017-10-09T01:48:38.590Z,9.30
2017-10-09T01:51:06.830Z,9.30
2017-10-09T01:53:35.109Z,9.30
2017-10-09T01:56:03.353Z,9.30
2017-10-09T01:58:31.607Z,9.30
2017-10-09T02:01:00.623Z,9.30
2017-10-09T02:03:28.866Z,9.30
2017-10-09T02:05:57.877Z,9.30
2017-10-09T02:08:26.129Z,9.20
2017-10-09T02:10:54.372Z,9.20
2017-10-09T02:13:22.626Z,9.20
2017-10-09T02:15:50.874Z,9.20
2017-10-09T02:18:19.125Z,9.20
2017-10-09T02:20:47.373Z,9.20
2017-10-09T02:23:15.624Z,9.20
2017-10-09T02:25:43.877Z,9.20
2017-10-09T02:28:12.899Z,9.20
2017-10-09T02:30:41.150Z,9.20
2017-10-09T02:33:09.407Z,9.20
2017-10-09T02:35:38.416Z,9.10
2017-10-09T02:38:06.667Z,9.10
2017-10-09T02:40:34.912Z,9.10
2017-10-09T02:43:03.159Z,9.00
2017-10-09T02:45:31.402Z,9.00
2017-10-09T02:48:00.418Z,9.00
2017-10-09T02:50:28.660Z,9.00
2017-10-09T02:52:56.910Z,9.00
2017-10-09T02:55:25.145Z,9.00
2017-10-09T02:57:53.397Z,9.00
2017-10-09T03:00:22.404Z,9.10
2017-10-09T03:02:51.415Z,9.10
2017-10-09T03:05:19.650Z,9.00
2017-10-09T03:07:48.665Z,9.00
2017-10-09T03:10:17.673Z,9.00
2017-10-09T03:12:45.919Z,9.00
2017-10-09T03:15:14.932Z,8.90
2017-10-09T03:17:43.185Z,8.90
2017-10-09T03:20:12.194Z,8.90
2017-10-09T03:22:46.048Z,8.90
2017-10-09T03:25:15.189Z,8.90
2017-10-09T03:27:47.691Z,8.80
2017-10-09T03:30:15.935Z,8.80
2017-10-09T03:32:44.953Z,8.70
2017-10-09T03:35:13.197Z,8.70
2017-10-09T03:37:41.438Z,8.80
2017-10-09T03:40:09.686Z,8.80
2017-10-09T03:42:37.938Z,8.80
2017-10-09T03:45:06.184Z,8.70
2017-10-09T03:47:34.438Z,8.70
2017-10-09T03:50:02.683Z,8.70
2017-10-09T03:52:30.931Z,8.70
2017-10-09T03:54:59.938Z,8.60
2017-10-09T03:57:28.181Z,8.60
2017-10-09T03:59:56.418Z,8.60
2017-10-09T04:02:24.687Z,8.50
2017-10-09T04:04:52.925Z,8.50
2017-10-09T04:07:21.947Z,8.40
2017-10-09T04:09:50.194Z,8.40
2017-10-09T04:12:19.209Z,8.40
2017-10-09T04:14:47.468Z,8.30
2017-10-09T04:17:16.490Z,8.40
2017-10-09T04:19:44.735Z,8.30
2017-10-09T04:22:13.759Z,8.30
2017-10-09T04:24:41.999Z,8.30
2017-10-09T04:27:11.015Z,8.30
2017-10-09T04:29:39.264Z,8.30
2017-10-09T04:32:08.282Z,8.30
2017-10-09T04:34:36.528Z,8.30
2017-10-09T04:37:05.545Z,8.30
2017-10-09T04:39:33.785Z,8.30
2017-10-09T04:42:02.042Z,8.30
2017-10-09T04:44:30.295Z,8.30
2017-10-09T04:46:58.542Z,8.30
2017-10-09T04:49:26.807Z,8.20
2017-10-09T04:51:55.056Z,8.20
2017-10-09T04:54:23.306Z,8.20
2017-10-09T04:56:52.321Z,8.10
2017-10-09T04:59:20.575Z,8.10
2017-10-09T05:01:49.590Z,8.00
2017-10-09T05:04:17.837Z,8.00
2017-10-09T05:06:46.851Z,8.00
2017-10-09T05:09:15.106Z,8.00
2017-10-09T05:11:44.121Z,7.90
2017-10-09T05:14:12.374Z,7.90
2017-10-09T05:16:41.397Z,7.90
2017-10-09T05:19:09.653Z,7.90
2017-10-09T05:21:37.903Z,7.90
2017-10-09T05:24:06.158Z,7.90
2017-10-09T05:26:34.401Z,7.80
2017-10-09T05:29:02.646Z,7.80
2017-10-09T05:31:31.658Z,7.80
2017-10-09T05:33:59.915Z,7.80
2017-10-09T05:36:28.930Z,7.80
2017-10-09T05:38:57.183Z,7.80
2017-10-09T05:41:26.197Z,7.80
2017-10-09T05:43:54.447Z,7.80
2017-10-09T05:46:23.475Z,7.80
2017-10-09T05:48:51.726Z,7.80
2017-10-09T05:51:20.735Z,7.80
2017-10-09T05:53:48.991Z,7.80
2017-10-09T05:56:18.005Z,7.80
2017-10-09T05:58:46.258Z,7.80
2017-10-09T06:01:15.269Z,7.90
2017-10-09T06:03:43.522Z,7.90
2017-10-09T06:06:12.529Z,7.90
2017-10-09T06:08:40.784Z,7.90
2017-10-09T06:11:09.794Z,8.00
2017-10-09T06:13:38.813Z,7.90
2017-10-09T06:16:07.056Z,8.00
2017-10-09T06:18:36.075Z,8.00
2017-10-09T06:21:04.323Z,8.00
2017-10-09T06:23:33.337Z,8.00
2017-10-09T06:26:01.582Z,8.00
2017-10-09T06:28:30.594Z,8.10
2017-10-09T06:30:58.843Z,8.10
2017-10-09T06:33:27.869Z,8.10
2017-10-09T06:35:56.114Z,8.10
2017-10-09T06:38:24.365Z,8.10
2017-10-09T06:40:52.606Z,8.10
2017-10-09T06:43:20.850Z,8.10
2017-10-09T06:45:49.854Z,8.10
2017-10-09T06:48:18.109Z,8.10
2017-10-09T06:50:47.122Z,8.10
2017-10-09T06:53:15.374Z,8.10
2017-10-09T06:55:43.609Z,8.10
2017-10-09T06:58:11.861Z,8.20
2017-10-09T07:00:40.115Z,8.30
2017-10-09T07:03:09.130Z,8.50
2017-10-09T07:05:37.370Z,8.50
2017-10-09T07:08:05.622Z,8.60
2017-10-09T07:10:33.862Z,8.60
2017-10-09T07:13:02.115Z,8.70
2017-10-09T07:15:31.119Z,8.90
2017-10-09T07:17:59.369Z,8.90
2017-10-09T07:20:28.378Z,8.90
2017-10-09T07:22:56.631Z,8.90
2017-10-09T07:25:24.877Z,9.00
2017-10-09T07:27:53.131Z,9.10
2017-10-09T07:30:21.383Z,9.30
2017-10-09T07:32:50.382Z,9.20
2017-10-09T07:35:18.626Z,9.20
2017-10-09T07:37:46.878Z,9.20
2017-10-09T07:40:15.121Z,9.40
2017-10-09T07:42:43.366Z,9.40
2017-10-09T07:45:12.387Z,9.30
2017-10-09T07:47:40.633Z,9.30
2017-10-09T07:50:09.667Z,9.60
2017-10-09T07:52:37.910Z,9.60
2017-10-09T07:55:06.162Z,9.90
2017-10-09T07:57:34.413Z,10.00
2017-10-09T08:00:02.678Z,10.10
2017-10-09T08:02:30.934Z,10.10
2017-10-09T08:04:59.193Z,10.10
2017-10-09T08:07:27.447Z,10.10
2017-10-09T08:09:56.458Z,10.20
2017-10-09T08:12:24.714Z,10.10
2017-10-09T08:14:53.765Z,10.10
2017-10-09T08:17:22.015Z,10.00
2017-10-09T08:19:50.250Z,10.00
2017-10-09T08:22:18.507Z,10.00
2017-10-09T08:24:47.532Z,10.10
2017-10-09T08:27:15.791Z,10.10
2017-10-09T08:29:44.037Z,10.10
2017-10-09T08:32:12.295Z,10.10
2017-10-09T08:34:40.539Z,10.40
2017-10-09T08:37:08.790Z,10.50
2017-10-09T08:39:37.030Z,10.70
2017-10-09T08:42:05.281Z,10.80
2017-10-09T08:44:33.531Z,10.80
2017-10-09T08:47:01.802Z,11.00
2017-10-09T08:49:30.067Z,11.20
2017-10-09T08:51:59.100Z,11.70
2017-10-09T08:54:27.359Z,11.60
2017-10-09T08:56:55.606Z,11.20
2017-10-09T08:59:24.639Z,11.30
2017-10-09T09:01:52.905Z,11.30
2017-10-09T09:04:21.157Z,11.00
2017-10-09T09:06:49.416Z,10.80
2017-10-09T09:09:18.450Z,11.10
2017-10-09T09:11:46.705Z,11.10
2017-10-09T09:14:14.972Z,10.90
2017-10-09T09:16:43.998Z,11.10
2017-10-09T09:19:12.274Z,11.10
2017-10-09T09:21:40.533Z,11.10
2017-10-09T09:24:08.792Z,11.20
2017-10-09T09:26:37.824Z,11.30
2017-10-09T09:29:06.206Z,11.20
2017-10-09T09:31:34.455Z,11.50
2017-10-09T09:34:02.729Z,11.60
2017-10-09T09:36:30.993Z,11.50
2017-10-09T09:39:00.024Z,11.60
2017-10-09T09:41:28.289Z,11.60
2017-10-09T09:43:56.551Z,11.40
2017-10-09T09:46:24.803Z,11.60
2017-10-09T09:48:53.838Z,11.90
2017-10-09T09:51:22.095Z,11.80
2017-10-09T09:53:50.359Z,11.90
2017-10-09T09:56:18.631Z,12.00
2017-10-09T09:58:47.654Z,12.00
2017-10-09T10:01:15.911Z,11.90
2017-10-09T10:03:45.730Z,12.00
2017-10-09T10:06:13.996Z,11.90
2017-10-09T10:08:42.260Z,12.10
2017-10-09T10:11:11.266Z,12.20
2017-10-09T10:13:39.534Z,12.20
2017-10-09T10:16:08.554Z,12.50
2017-10-09T10:18:36.822Z,12.50
2017-10-09T10:21:05.076Z,12.50
2017-10-09T10:23:34.099Z,12.40
2017-10-09T10:26:02.347Z,12.40
2017-10-09T10:28:30.611Z,12.50
2017-10-09T10:30:59.635Z,12.60
2017-10-09T10:33:27.895Z,12.60
2017-10-09T10:35:56.134Z,13.10
2017-10-09T10:38:24.406Z,13.40
2017-10-09T10:40:52.659Z,13.50
2017-10-09T10:43:21.602Z,13.30
2017-10-09T10:45:50.625Z,13.70
2017-10-09T10:48:18.869Z,13.70
2017-10-09T10:50:47.890Z,13.40
2017-10-09T10:53:16.134Z,13.30
2017-10-09T10:55:45.150Z,13.20
2017-10-09T10:58:13.403Z,13.20
2017-10-09T11:00:42.425Z,12.50
2017-10-09T11:03:10.665Z,12.50
2017-10-09T11:05:38.917Z,12.60
2017-10-09T11:08:07.163Z,12.70
2017-10-09T11:10:35.405Z,12.80
2017-10-09T11:13:04.422Z,14.50
2017-10-09T11:15:32.676Z,14.50
2017-10-09T11:18:01.689Z,13.10
2017-10-09T11:20:29.934Z,13.10
2017-10-09T11:22:58.957Z,12.70
2017-10-09T11:25:27.911Z,12.70
2017-10-09T11:27:56.159Z,12.80
2017-10-09T11:30:24.417Z,13.00
2017-10-09T11:32:52.665Z,13.30
2017-10-09T11:35:20.915Z,14.10
2017-10-09T11:37:49.155Z,14.50
2017-10-09T11:40:17.410Z,14.30
2017-10-09T11:42:45.666Z,13.90
2017-10-09T11:45:14.734Z,13.70
2017-10-09T11:47:43.743Z,14.00
2017-10-09T11:50:12.767Z,13.80
2017-10-09T11:52:40.996Z,13.80
2017-10-09T11:55:10.007Z,13.50
2017-10-09T11:57:38.264Z,13.50
2017-10-09T12:00:06.517Z,13.60
2017-10-09T12:02:34.774Z,13.70
2017-10-09T12:05:03.026Z,14.10
2017-10-09T12:07:31.271Z,12.90
2017-10-09T12:10:00.278Z,13.00
2017-10-09T12:12:28.518Z,13.00
2017-10-09T12:14:56.787Z,13.90
2017-10-09T12:17:25.031Z,14.10
2017-10-09T12:19:53.292Z,13.80
2017-10-09T12:22:21.540Z,13.90
2017-10-09T12:24:50.556Z,13.60
2017-10-09T12:27:18.794Z,13.60
2017-10-09T12:29:47.817Z,14.20
2017-10-09T12:32:16.065Z,14.20
2017-10-09T12:34:44.317Z,14.80
2017-10-09T12:37:12.567Z,14.30
2017-10-09T12:39:40.923Z,14.60
2017-10-09T12:42:09.937Z,14.40
2017-10-09T12:44:38.192Z,14.40
2017-10-09T12:47:06.458Z,14.10
2017-10-09T12:49:35.471Z,14.10
2017-10-09T12:52:03.721Z,14.10
2017-10-09T12:54:32.752Z,15.00
2017-10-09T12:57:01.005Z,15.00
2017-10-09T12:59:29.262Z,14.70
2017-10-09T13:01:58.360Z,15.20
2017-10-09T13:04:26.619Z,15.20
2017-10-09T13:06:54.861Z,14.70
2017-10-09T13:09:23.147Z,14.30
2017-10-09T13:11:51.404Z,14.20
2017-10-09T13:14:19.670Z,14.60
2017-10-09T13:16:47.922Z,14.00
2017-10-09T13:19:16.975Z,14.10
2017-10-09T13:21:45.226Z,14.10
2017-10-09T13:24:13.465Z,13.90
2017-10-09T13:26:41.779Z,13.70
2017-10-09T13:29:10.018Z,13.30
2017-10-09T13:31:38.275Z,13.50
2017-10-09T13:34:06.524Z,13.40
2017-10-09T13:36:34.775Z,13.40
2017-10-09T13:39:03.024Z,13.30
2017-10-09T13:41:31.323Z,13.00
2017-10-09T13:43:59.585Z,13.10
2017-10-09T13:46:27.849Z,13.20
2017-10-09T13:48:56.117Z,13.00
2017-10-09T13:51:25.148Z,13.20
2017-10-09T13:53:53.408Z,13.20
2017-10-09T13:56:21.669Z,13.30
2017-10-09T13:58:49.910Z,13.40
2017-10-09T14:01:18.161Z,13.40
2017-10-09T14:03:47.144Z,13.00
2017-10-09T14:06:15.411Z,12.90
2017-10-09T14:08:43.655Z,12.90
2017-10-09T14:11:12.674Z,12.70
2017-10-09T14:13:40.931Z,12.70
2017-10-09T14:16:09.218Z,12.80
2017-10-09T14:18:37.471Z,12.90
2017-10-09T14:21:06.562Z,13.00
2017-10-09T14:23:35.575Z,13.30
2017-10-09T14:26:03.833Z,13.30
2017-10-09T14:28:32.845Z,14.90
2017-10-09T14:31:01.106Z,14.90
2017-10-09T14:40:55.649Z,13.50
2017-10-09T14:43:24.869Z,13.20
2017-10-09T14:45:53.111Z,13.20
2017-10-09T14:48:22.151Z,13.30
2017-10-09T14:50:50.403Z,13.30
2017-10-09T14:53:18.678Z,13.20
2017-10-09T14:55:47.669Z,12.80
2017-10-09T14:58:15.933Z,12.80
2017-10-09T15:00:44.947Z,12.80
2017-10-09T15:03:13.207Z,12.80
2017-10-09T15:05:41.449Z,12.80
2017-10-09T15:08:09.699Z,12.90
2017-10-09T15:10:37.950Z,12.90
2017-10-09T15:13:06.192Z,12.80
2017-10-09T15:15:35.211Z,12.70
2017-10-09T15:18:03.478Z,12.70
2017-10-09T15:20:31.744Z,12.70
2017-10-09T15:23:00.782Z,12.60
2017-10-09T15:25:29.035Z,12.60
2017-10-09T15:27:57.289Z,12.70
2017-10-09T15:30:26.312Z,12.50
2017-10-09T15:32:54.574Z,12.50
2017-10-09T15:35:22.828Z,12.50
2017-10-09T15:37:51.090Z,12.50
2017-10-09T15:40:20.137Z,12.40
2017-10-09T15:42:48.415Z,12.40
2017-10-09T15:45:16.673Z,12.30
2017-10-09T15:47:44.934Z,12.20
2017-10-09T15:50:13.204Z,12.20
2017-10-09T15:52:42.227Z,12.10
2017-10-09T15:55:10.498Z,12.10
2017-10-09T15:57:38.739Z,12.10
2017-10-09T16:00:07.783Z,12.00
2017-10-09T16:02:36.795Z,12.00
2017-10-09T16:05:05.070Z,11.90
2017-10-09T16:07:33.329Z,12.00
2017-10-09T16:10:01.599Z,12.00
2017-10-09T16:12:29.866Z,12.00
2017-10-09T16:14:58.131Z,11.90
2017-10-09T16:17:26.385Z,11.80
2017-10-09T16:19:55.416Z,11.80
2017-10-09T16:22:23.676Z,11.80
2017-10-09T16:24:51.940Z,11.80
2017-10-09T16:27:20.190Z,11.80
2017-10-09T16:29:49.216Z,11.70
2017-10-09T16:32:17.469Z,11.70
2017-10-09T16:34:46.500Z,11.60
2017-10-09T16:37:14.749Z,11.50
2017-10-09T16:39:43.015Z,11.40
2017-10-09T16:42:11.271Z,11.30
2017-10-09T16:44:39.543Z,11.20
2017-10-09T16:47:07.803Z,10.90
2017-10-09T16:49:36.058Z,10.70
2017-10-09T16:52:04.320Z,10.60
2017-10-09T16:54:32.616Z,10.40
2017-10-09T16:57:00.881Z,10.30
2017-10-09T16:59:29.934Z,10.30
2017-10-09T17:01:58.974Z,10.20
2017-10-09T17:04:27.242Z,10.20
2017-10-09T17:06:55.512Z,10.10
2017-10-09T17:09:23.785Z,10.00
2017-10-09T17:11:52.056Z,10.10
2017-10-09T17:14:20.318Z,10.10
2017-10-09T17:16:49.338Z,10.00
2017-10-09T17:19:17.600Z,10.00
2017-10-09T17:21:45.875Z,9.90
2017-10-09T17:24:14.123Z,10.00
2017-10-09T17:26:43.177Z,10.00
2017-10-09T17:29:11.436Z,10.00
2017-10-09T17:31:40.474Z,9.90
2017-10-09T17:34:08.718Z,9.90
2017-10-09T17:36:36.980Z,10.00
2017-10-09T17:39:06.005Z,10.00
2017-10-09T17:41:34.258Z,10.00
2017-10-09T17:44:03.291Z,10.00
2017-10-09T17:46:31.553Z,10.00
2017-10-09T17:48:59.805Z,10.00
2017-10-09T17:51:28.077Z,10.00
2017-10-09T17:53:57.086Z,10.00
2017-10-09T17:56:25.360Z,10.00
2017-10-09T17:58:53.616Z,10.00
2017-10-09T18:01:22.647Z,10.10
2017-10-09T18:03:50.900Z,10.10
2017-10-09T18:06:19.161Z,10.10
2017-10-09T18:08:48.174Z,10.10
2017-10-09T18:11:16.443Z,10.10
2017-10-09T18:13:45.802Z,10.10
2017-10-09T18:16:14.082Z,10.10
2017-10-09T18:18:42.346Z,10.10
2017-10-09T18:21:10.605Z,10.10
2017-10-09T18:23:38.864Z,10.10
2017-10-09T18:26:07.193Z,10.10
2017-10-09T18:28:35.439Z,10.00
2017-10-09T18:31:03.700Z,10.10
2017-10-09T18:33:31.946Z,10.10
2017-10-09T18:36:00.978Z,10.20
2017-10-09T18:38:29.235Z,10.20
2017-10-09T18:40:57.507Z,10.20
2017-10-09T18:43:25.775Z,10.20
2017-10-09T18:45:54.039Z,10.20
2017-10-09T18:48:23.066Z,10.20
2017-10-09T18:50:51.340Z,10.10
2017-10-09T18:53:19.597Z,10.20
2017-10-09T18:55:47.871Z,10.10
2017-10-09T18:58:16.133Z,10.10
2017-10-09T19:00:45.153Z,10.20
2017-10-09T19:03:13.450Z,10.10
2017-10-09T19:05:41.811Z,10.20
2017-10-09T19:08:10.065Z,10.20
2017-10-09T19:10:38.327Z,10.20
2017-10-09T19:13:07.346Z,10.20
2017-10-09T19:15:35.618Z,10.20
2017-10-09T19:18:03.886Z,10.20
2017-10-09T19:20:32.143Z,10.20
2017-10-09T19:23:01.179Z,10.20
2017-10-09T19:25:29.440Z,10.20
2017-10-09T19:27:57.711Z,10.20
2017-10-09T19:30:25.968Z,10.20
2017-10-09T19:32:54.233Z,10.20
2017-10-09T19:35:22.478Z,10.20
2017-10-09T19:37:51.439Z,10.30
2017-10-09T19:40:19.751Z,10.30
2017-10-09T19:43:08.626Z,10.20
2017-10-09T19:49:03.317Z,10.20
2017-10-09T19:51:31.595Z,10.20
2017-10-09T19:54:16.944Z,10.20
2017-10-09T19:56:45.323Z,10.20
2017-10-09T19:59:14.908Z,10.20
2017-10-09T20:01:43.262Z,10.20
2017-10-09T20:04:36.082Z,10.20
2017-10-09T20:07:11.716Z,10.20
2017-10-09T20:09:52.831Z,10.20
2017-10-09T20:15:57.357Z,10.30
2017-10-09T20:18:57.841Z,10.30
2017-10-09T20:21:26.204Z,10.30
2017-10-09T20:23:55.395Z,10.30
2017-10-09T20:26:24.604Z,10.20
2017-10-09T20:28:53.627Z,10.20
2017-10-09T20:31:21.879Z,10.20
2017-10-09T20:33:50.134Z,10.20
2017-10-09T20:36:18.400Z,10.20
2017-10-09T20:38:46.646Z,10.30
2017-10-09T20:41:14.908Z,10.30
2017-10-09T20:43:43.159Z,10.30
2017-10-09T20:46:11.421Z,10.30
2017-10-09T20:48:40.436Z,10.30
2017-10-09T20:51:08.691Z,10.30
2017-10-09T20:53:37.735Z,10.30
2017-10-09T20:56:06.777Z,10.30
2017-10-09T20:58:35.016Z,10.30
2017-10-09T21:01:03.288Z,10.40
2017-10-09T21:03:31.528Z,10.40
2017-10-09T21:05:59.796Z,10.40
2017-10-09T21:08:28.045Z,10.40
2017-10-09T21:10:57.076Z,10.30
2017-10-09T21:13:25.326Z,10.30
2017-10-09T21:15:54.386Z,10.30
2017-10-09T21:18:22.648Z,10.30
2017-10-09T21:20:51.664Z,10.30
2017-10-09T21:23:19.926Z,10.30
2017-10-09T21:25:48.191Z,10.30
2017-10-09T21:28:16.449Z,10.30
2017-10-09T21:30:44.704Z,10.40
2017-10-09T21:33:12.974Z,10.40
2017-10-09T21:35:41.980Z,10.40
2017-10-09T21:38:10.236Z,10.40
2017-10-09T21:40:41.384Z,10.40
2017-10-09T21:43:10.402Z,10.40
2017-10-09T21:45:38.659Z,10.40
2017-10-09T21:48:06.920Z,10.40
2017-10-09T21:50:35.940Z,10.40
2017-10-09T21:53:04.199Z,10.40
2017-10-09T21:55:32.453Z,10.40
2017-10-09T21:58:01.479Z,10.30
2017-10-09T22:00:29.734Z,10.30
2017-10-09T22:02:58.763Z,10.40
2017-10-09T22:05:27.007Z,10.30
2017-10-09T22:07:56.035Z,10.30
2017-10-09T22:10:24.279Z,10.30
2017-10-09T22:12:52.544Z,10.30
2017-10-09T22:15:21.567Z,10.40
2017-10-09T22:17:49.830Z,10.30
2017-10-09T22:20:18.087Z,10.40
2017-10-09T22:22:47.116Z,10.40
2017-10-09T22:25:15.370Z,10.40
2017-10-09T22:27:45.886Z,10.40
2017-10-09T22:30:15.016Z,10.40
2017-10-09T22:32:43.260Z,10.30
2017-10-09T22:35:12.284Z,10.30
2017-10-09T22:37:40.533Z,10.30
2017-10-09T22:40:09.604Z,10.40
2017-10-09T22:42:38.938Z,10.40
2017-10-09T22:45:07.251Z,10.30
2017-10-09T22:47:35.553Z,10.30
2017-10-09T22:50:03.826Z,10.40
2017-10-09T22:52:32.068Z,10.40
2017-10-09T22:55:00.321Z,10.40
2017-10-09T22:57:28.571Z,10.40
2017-10-09T22:59:57.603Z,10.50
2017-10-09T23:02:25.856Z,10.50
2017-10-09T23:04:54.876Z,10.50
2017-10-09T23:07:23.126Z,10.50
2017-10-09T23:09:51.387Z,10.50
2017-10-09T23:12:20.404Z,10.50
2017-10-09T23:14:48.660Z,10.50
2017-10-09T23:17:17.679Z,10.50
2017-10-09T23:19:45.935Z,10.50
2017-10-09T23:22:14.184Z,10.50
2017-10-09T23:24:42.448Z,10.50
2017-10-09T23:27:10.701Z,10.50
2017-10-09T23:29:38.962Z,10.50
2017-10-09T23:32:07.206Z,10.50
2017-10-09T23:34:36.236Z,10.60
2017-10-09T23:37:04.489Z,10.50
2017-10-09T23:39:32.780Z,10.60
2017-10-09T23:42:01.031Z,10.60
2017-10-09T23:44:29.282Z,10.60
2017-10-09T23:46:57.553Z,10.60
2017-10-09T23:49:25.804Z,10.60
2017-10-09T23:51:54.067Z,10.60
2017-10-09T23:54:22.317Z,10.60
2017-10-09T23:56:50.575Z,10.50
2017-10-09T23:59:19.591Z,10.50
